Time;durP1;ratioP1;P1;durP2;ratioP2;P2;SDS_P1;SDS_P2;PMS_P1;PMS_P2;Temp;Humidity;BMP_temperature;BMP_pressure;BME280_temperature;BME280_humidity;BME280_pressure;Samples;Min_cycle;Max_cycle;Signal;HPM_P1;HPM_P2
2024/03/01 00:01:57;;;;;;;60.47;19.58;;;9.80;99.90;;;;;;5048034;28;20120;-88
2024/03/01 00:04:22;;;;;;;60.40;21.88;;;9.80;99.90;;;;;;5044954;28;20028;-88
2024/03/01 00:06:48;;;;;;;57.08;20.05;;;9.80;99.90;;;;;;5041353;28;20025;-89
2024/03/01 00:09:13;;;;;;;47.45;20.00;;;9.80;99.90;;;;;;5046576;28;20487;-88
2024/03/01 00:11:39;;;;;;;48.47;20.52;;;9.80;99.90;;;;;;5047702;28;20022;-87
2024/03/01 00:14:05;;;;;;;42.88;18.38;;;9.80;99.90;;;;;;5044474;28;20036;-88
2024/03/01 00:16:31;;;;;;;48.45;19.77;;;9.80;99.90;;;;;;5041889;28;20400;-89
2024/03/01 00:18:56;;;;;;;49.47;19.65;;;9.70;99.90;;;;;;5047650;28;20032;-88
2024/03/01 00:21:22;;;;;;;52.50;20.08;;;9.80;99.90;;;;;;5038933;28;20191;-88
2024/03/01 00:23:47;;;;;;;45.53;18.45;;;9.70;99.90;;;;;;5045030;28;20033;-88
2024/03/01 00:26:13;;;;;;;52.13;21.63;;;9.70;99.90;;;;;;5048865;28;20495;-88
2024/03/01 00:28:39;;;;;;;46.92;18.23;;;9.70;99.90;;;;;;5043560;28;20025;-89
2024/03/01 00:31:05;;;;;;;45.50;19.50;;;9.70;99.90;;;;;;5044639;28;20025;-88
2024/03/01 00:33:31;;;;;;;51.05;19.58;;;9.70;99.90;;;;;;5046576;28;20033;-88
2024/03/01 00:35:57;;;;;;;51.85;19.27;;;9.80;99.90;;;;;;5045125;28;20057;-88
2024/03/01 00:38:23;;;;;;;46.47;19.80;;;9.70;99.90;;;;;;5046499;28;20026;-87
2024/03/01 00:40:48;;;;;;;49.00;20.05;;;9.70;99.90;;;;;;5045351;28;20029;-88
2024/03/01 00:43:14;;;;;;;49.83;18.27;;;9.70;99.90;;;;;;5046807;28;20111;-89
2024/03/01 00:45:40;;;;;;;44.65;19.55;;;9.70;99.90;;;;;;5042596;28;20565;-89
2024/03/01 00:48:11;;;;;;;55.35;19.63;;;9.70;99.90;;;;;;5046935;28;20029;-89
2024/03/01 00:50:38;;;;;;;42.65;17.92;;;9.70;99.90;;;;;;5043529;28;20022;-88
2024/03/01 00:53:04;;;;;;;58.60;19.88;;;9.70;99.90;;;;;;5046718;28;20060;-89
2024/03/01 00:55:30;;;;;;;48.70;19.40;;;9.70;99.90;;;;;;5025809;28;20025;-87
2024/03/01 00:57:56;;;;;;;46.80;17.77;;;9.70;99.90;;;;;;5033711;28;20026;-89
2024/03/01 01:00:21;;;;;;;50.65;19.77;;;9.70;99.90;;;;;;5020674;28;20578;-88
2024/03/01 01:02:47;;;;;;;50.45;18.60;;;9.70;99.90;;;;;;5040785;28;20067;-88
2024/03/01 01:05:13;;;;;;;46.25;18.30;;;9.70;99.90;;;;;;5030186;28;20030;-88
2024/03/01 01:07:38;;;;;;;52.40;20.08;;;9.70;99.90;;;;;;5026743;28;20033;-89
2024/03/01 01:10:04;;;;;;;45.17;18.17;;;9.70;99.90;;;;;;5033306;28;20021;-89
2024/03/01 01:12:31;;;;;;;48.13;20.20;;;9.70;99.90;;;;;;5032464;28;20021;-88
2024/03/01 01:14:56;;;;;;;44.10;18.15;;;9.70;99.90;;;;;;5019821;28;20025;-89
2024/03/01 01:17:22;;;;;;;51.13;19.73;;;9.70;99.90;;;;;;5033316;28;20028;-89
2024/03/01 01:19:47;;;;;;;47.65;18.25;;;9.70;99.90;;;;;;5030233;28;20025;-88
2024/03/01 01:22:13;;;;;;;50.28;19.42;;;9.70;99.90;;;;;;5033050;28;20025;-88
2024/03/01 01:24:38;;;;;;;42.30;17.63;;;9.70;99.90;;;;;;5032874;28;20025;-88
2024/03/01 01:27:04;;;;;;;48.58;18.77;;;9.70;99.90;;;;;;5030203;28;20081;-89
2024/03/01 01:29:30;;;;;;;45.67;18.85;;;9.70;99.90;;;;;;5025663;28;20424;-89
2024/03/01 01:31:56;;;;;;;42.55;18.23;;;9.70;99.90;;;;;;5032140;28;20021;-88
2024/03/01 01:34:22;;;;;;;37.88;17.38;;;9.70;99.90;;;;;;5032470;28;20017;-88
2024/03/01 01:36:48;;;;;;;46.08;18.33;;;9.70;99.90;;;;;;5032560;28;20040;-89
2024/03/01 01:39:13;;;;;;;40.67;17.27;;;9.70;99.90;;;;;;5029661;28;20503;-89
2024/03/01 01:41:39;;;;;;;49.53;18.63;;;9.70;99.90;;;;;;5029637;28;20030;-88
2024/03/01 01:44:04;;;;;;;46.33;18.83;;;9.70;99.90;;;;;;5032405;28;20037;-89
2024/03/01 01:46:30;;;;;;;48.08;17.80;;;9.70;99.90;;;;;;5028057;28;20021;-89
2024/03/01 01:48:57;;;;;;;41.17;18.30;;;9.70;99.90;;;;;;5017566;28;20447;-88
2024/03/01 01:51:23;;;;;;;46.92;18.42;;;9.60;99.90;;;;;;5026428;28;20503;-88
2024/03/01 01:53:49;;;;;;;51.47;19.42;;;9.60;99.90;;;;;;5032652;28;20026;-88
2024/03/01 01:56:14;;;;;;;45.45;20.35;;;9.60;99.90;;;;;;5026045;28;20071;-88
2024/03/01 01:58:41;;;;;;;42.88;17.73;;;9.70;99.90;;;;;;5024642;28;20036;-88
2024/03/01 02:01:08;;;;;;;43.05;19.00;;;9.60;99.90;;;;;;5028851;28;20022;-89
2024/03/01 02:03:38;;;;;;;43.65;19.73;;;9.60;99.90;;;;;;5032132;28;20025;-88
2024/03/01 02:06:07;;;;;;;44.92;17.92;;;9.60;99.90;;;;;;5031825;28;20021;-89
2024/03/01 02:08:34;;;;;;;54.85;19.73;;;9.60;99.90;;;;;;5044816;28;20033;-88
2024/03/01 02:11:01;;;;;;;47.53;19.20;;;9.70;99.90;;;;;;5025973;28;20022;-89
2024/03/01 02:13:27;;;;;;;49.58;19.25;;;9.60;99.90;;;;;;5031974;28;20510;-88
2024/03/01 02:15:53;;;;;;;46.47;19.48;;;9.60;99.90;;;;;;5018341;28;20022;-88
2024/03/01 02:18:19;;;;;;;49.63;18.98;;;9.60;99.90;;;;;;5018206;28;20022;-89
2024/03/01 02:21:03;;;;;;;47.63;18.55;;;9.60;99.90;;;;;;5028735;28;20037;-88
2024/03/01 02:23:28;;;;;;;43.53;17.90;;;9.60;99.90;;;;;;5031295;28;20478;-88
2024/03/01 02:25:54;;;;;;;42.85;16.90;;;9.60;99.90;;;;;;5033064;28;20049;-89
2024/03/01 02:28:20;;;;;;;46.35;17.85;;;9.60;99.90;;;;;;5028459;28;20037;-88
2024/03/01 02:30:46;;;;;;;40.90;17.55;;;9.60;99.90;;;;;;5031915;28;20025;-88
2024/03/01 02:33:11;;;;;;;42.72;18.17;;;9.60;99.90;;;;;;5031489;28;20029;-88
2024/03/01 02:35:38;;;;;;;45.83;18.95;;;9.60;99.90;;;;;;5025534;28;20025;-87
2024/03/01 02:38:04;;;;;;;38.45;17.92;;;9.60;99.90;;;;;;5030822;28;20060;-89
2024/03/01 02:40:30;;;;;;;45.78;17.90;;;9.60;99.90;;;;;;5030477;28;20021;-88
2024/03/01 02:42:55;;;;;;;45.33;19.48;;;9.60;99.90;;;;;;5028013;28;20095;-89
2024/03/01 02:45:21;;;;;;;45.40;17.58;;;9.60;99.90;;;;;;5028261;28;20443;-88
2024/03/01 02:47:47;;;;;;;45.53;18.63;;;9.60;99.90;;;;;;5031284;28;20040;-89
2024/03/01 02:50:13;;;;;;;42.38;17.67;;;9.60;99.90;;;;;;5031538;28;20071;-88
2024/03/01 02:52:40;;;;;;;45.75;17.73;;;9.60;99.90;;;;;;5024488;28;20479;-88
2024/03/01 02:55:06;;;;;;;46.25;16.13;;;9.60;99.90;;;;;;5034667;28;20017;-89
2024/03/01 02:57:32;;;;;;;44.92;17.00;;;9.60;99.90;;;;;;5036193;28;20024;-89
2024/03/01 02:59:57;;;;;;;52.65;17.98;;;9.60;99.90;;;;;;5029634;28;20148;-90
2024/03/01 03:02:23;;;;;;;37.03;16.83;;;9.60;99.90;;;;;;5030972;28;20014;-89
2024/03/01 03:04:48;;;;;;;39.78;15.95;;;9.60;99.90;;;;;;5030948;28;20104;-88
2024/03/01 03:07:15;;;;;;;43.20;16.83;;;9.60;99.90;;;;;;5031186;28;20021;-88
2024/03/01 03:09:41;;;;;;;43.78;16.58;;;9.60;99.90;;;;;;5027830;28;20014;-89
2024/03/01 03:12:07;;;;;;;40.20;17.20;;;9.60;99.90;;;;;;5031205;28;20428;-88
2024/03/01 03:14:32;;;;;;;42.90;16.58;;;9.60;99.90;;;;;;5026596;28;20036;-89
2024/03/01 03:16:58;;;;;;;39.70;16.38;;;9.60;99.90;;;;;;5026924;28;20444;-88
2024/03/01 03:19:23;;;;;;;49.55;18.23;;;9.50;99.90;;;;;;5030044;28;20499;-88
2024/03/01 03:21:49;;;;;;;40.65;16.25;;;9.50;99.90;;;;;;5030916;28;20025;-88
2024/03/01 03:24:15;;;;;;;46.63;18.15;;;9.50;99.90;;;;;;5031912;28;20017;-88
2024/03/01 03:26:40;;;;;;;39.42;16.15;;;9.50;99.90;;;;;;5014967;28;20022;-89
2024/03/01 03:29:06;;;;;;;41.63;17.20;;;9.50;99.90;;;;;;5030906;28;20414;-89
2024/03/01 03:31:31;;;;;;;47.92;16.60;;;9.50;99.90;;;;;;5030122;28;20029;-88
2024/03/01 03:33:57;;;;;;;42.65;17.52;;;9.50;99.90;;;;;;5018223;28;20026;-88
2024/03/01 03:36:22;;;;;;;43.33;16.27;;;9.50;99.90;;;;;;5030758;28;20033;-88
2024/03/01 03:38:48;;;;;;;46.63;16.52;;;9.50;99.90;;;;;;5024581;28;20101;-89
2024/03/01 03:41:14;;;;;;;43.08;16.85;;;9.50;99.90;;;;;;5022276;28;20036;-89
2024/03/01 03:43:39;;;;;;;43.00;17.92;;;9.50;99.90;;;;;;5030205;28;20034;-88
2024/03/01 03:46:05;;;;;;;42.28;15.23;;;9.50;99.90;;;;;;5030802;28;20033;-88
2024/03/01 03:48:31;;;;;;;41.72;17.33;;;9.50;99.90;;;;;;5028914;28;20435;-87
2024/03/01 03:50:57;;;;;;;42.60;16.08;;;9.50;99.90;;;;;;5032002;28;20013;-89
2024/03/01 03:53:22;;;;;;;54.80;17.83;;;9.50;99.90;;;;;;5028310;28;20032;-88
2024/03/01 03:55:48;;;;;;;44.50;17.40;;;9.50;99.90;;;;;;5030656;28;20029;-89
2024/03/01 03:58:13;;;;;;;41.88;16.17;;;9.50;99.90;;;;;;5031320;28;20075;-88
2024/03/01 04:00:39;;;;;;;36.58;16.65;;;9.50;99.90;;;;;;5030412;28;20021;-89
2024/03/01 04:03:04;;;;;;;46.00;17.40;;;9.50;99.90;;;;;;5025604;28;20021;-88
2024/03/01 04:05:30;;;;;;;43.47;16.70;;;9.50;99.90;;;;;;5029509;28;20048;-89
2024/03/01 04:07:55;;;;;;;45.63;16.75;;;9.50;99.90;;;;;;5029067;28;20499;-89
2024/03/01 04:10:22;;;;;;;38.20;15.70;;;9.50;99.90;;;;;;5020843;28;20424;-89
2024/03/01 04:12:48;;;;;;;39.35;15.55;;;9.50;99.90;;;;;;5023590;28;20033;-88
2024/03/01 04:15:14;;;;;;;38.90;15.45;;;9.50;99.90;;;;;;5026229;28;20082;-88
2024/03/01 04:17:40;;;;;;;40.90;15.15;;;9.60;99.90;;;;;;5030339;28;20128;-88
2024/03/01 04:20:06;;;;;;;41.35;16.20;;;9.50;99.90;;;;;;5024919;28;20476;-88
2024/03/01 04:22:32;;;;;;;37.95;16.05;;;9.50;99.90;;;;;;5010839;28;20022;-89
2024/03/01 04:24:57;;;;;;;40.08;16.48;;;9.60;99.90;;;;;;5031411;28;20086;-89
2024/03/01 04:27:23;;;;;;;41.55;16.52;;;9.60;99.90;;;;;;5029609;28;20017;-89
2024/03/01 04:29:49;;;;;;;38.30;16.08;;;9.60;99.90;;;;;;5027750;28;20022;-88
2024/03/01 04:32:17;;;;;;;41.72;17.20;;;9.60;99.90;;;;;;5027065;28;20026;-88
2024/03/01 04:34:43;;;;;;;36.30;15.88;;;9.60;99.90;;;;;;5031819;28;20079;-87
2024/03/01 04:37:09;;;;;;;37.53;15.52;;;9.50;99.90;;;;;;5032227;28;20178;-88
2024/03/01 04:39:34;;;;;;;43.05;16.65;;;9.50;99.90;;;;;;5024930;28;20555;-89
2024/03/01 04:42:00;;;;;;;38.45;16.02;;;9.60;99.90;;;;;;5025276;28;20025;-89
2024/03/01 04:44:26;;;;;;;35.80;15.02;;;9.60;99.90;;;;;;5041586;28;20033;-88
2024/03/01 04:46:51;;;;;;;40.28;16.55;;;9.60;99.90;;;;;;5032874;28;20036;-88
2024/03/01 04:49:17;;;;;;;44.20;16.58;;;9.60;99.90;;;;;;5033816;28;20071;-88
2024/03/01 04:51:43;;;;;;;39.85;16.52;;;9.60;99.90;;;;;;5033620;28;20547;-88
2024/03/01 04:54:08;;;;;;;39.10;16.02;;;9.60;99.90;;;;;;5018138;28;20125;-89
2024/03/01 04:56:34;;;;;;;43.60;16.33;;;9.60;99.90;;;;;;5030640;28;20112;-87
2024/03/01 04:59:00;;;;;;;34.67;16.08;;;9.60;99.90;;;;;;5032226;28;20393;-89
2024/03/01 05:01:25;;;;;;;38.95;16.60;;;9.60;99.90;;;;;;5033622;28;20025;-88
2024/03/01 05:03:51;;;;;;;42.67;16.95;;;9.60;99.90;;;;;;5033168;28;20525;-89
2024/03/01 05:06:16;;;;;;;33.78;15.60;;;9.60;99.90;;;;;;5033505;28;20022;-88
2024/03/01 05:08:44;;;;;;;40.25;17.23;;;9.50;99.90;;;;;;5033130;28;20017;-89
2024/03/01 05:11:11;;;;;;;44.72;16.58;;;9.60;99.90;;;;;;5029729;28;20057;-88
2024/03/01 05:13:37;;;;;;;41.42;16.50;;;9.60;99.90;;;;;;5026400;28;20072;-86
2024/03/01 05:16:03;;;;;;;40.30;15.68;;;9.50;99.90;;;;;;5032459;28;20112;-88
2024/03/01 05:18:29;;;;;;;38.45;16.80;;;9.50;99.90;;;;;;5042727;28;20033;-89
2024/03/01 05:20:55;;;;;;;37.80;17.17;;;9.50;99.90;;;;;;5027025;28;20026;-89
2024/03/01 05:23:23;;;;;;;41.97;16.50;;;9.50;99.90;;;;;;5029437;28;20036;-89
2024/03/01 05:25:49;;;;;;;39.72;16.17;;;9.60;99.90;;;;;;5030386;28;20030;-89
2024/03/01 05:28:15;;;;;;;40.40;16.42;;;9.50;99.90;;;;;;5029800;28;20040;-89
2024/03/01 05:30:41;;;;;;;45.10;16.88;;;9.50;99.90;;;;;;5031351;28;20029;-88
2024/03/01 05:33:09;;;;;;;42.40;16.90;;;9.50;99.90;;;;;;5030333;28;20080;-87
2024/03/01 05:35:35;;;;;;;38.13;16.05;;;9.50;99.90;;;;;;5028351;28;20025;-89
2024/03/01 05:38:01;;;;;;;42.25;15.88;;;9.50;99.90;;;;;;5028715;28;20033;-88
2024/03/01 05:40:27;;;;;;;39.97;16.13;;;9.50;99.90;;;;;;5027827;28;20022;-89
2024/03/01 05:42:52;;;;;;;43.28;17.02;;;9.50;99.90;;;;;;5032055;28;20034;-89
2024/03/01 05:45:19;;;;;;;36.95;16.35;;;9.50;99.90;;;;;;5032773;28;20021;-89
2024/03/01 05:47:45;;;;;;;43.30;17.10;;;9.50;99.90;;;;;;5032673;28;20057;-88
2024/03/01 05:50:12;;;;;;;42.92;16.58;;;9.50;99.90;;;;;;5033800;28;20068;-88
2024/03/01 05:52:43;;;;;;;40.85;16.30;;;9.50;99.90;;;;;;5023982;28;20032;-89
2024/03/01 05:55:09;;;;;;;41.78;17.35;;;9.50;99.90;;;;;;5029152;28;20057;-88
2024/03/01 05:57:35;;;;;;;44.45;18.67;;;9.50;99.90;;;;;;5020017;28;20025;-88
2024/03/01 06:00:09;;;;;;;35.83;16.02;;;9.50;99.90;;;;;;5032301;28;20053;-87
2024/03/01 06:02:35;;;;;;;39.65;17.52;;;9.50;99.90;;;;;;5024113;28;20021;-89
2024/03/01 06:05:01;;;;;;;42.90;17.45;;;9.50;99.90;;;;;;5032165;28;20748;-88
2024/03/01 06:07:27;;;;;;;40.97;16.45;;;9.50;99.90;;;;;;5033240;28;20071;-89
2024/03/01 06:09:52;;;;;;;38.65;16.60;;;9.50;99.90;;;;;;5029505;28;20117;-88
2024/03/01 06:12:18;;;;;;;42.13;16.58;;;9.50;99.90;;;;;;5029155;28;20033;-88
2024/03/01 06:14:44;;;;;;;45.28;16.75;;;9.50;99.90;;;;;;5023264;28;20017;-88
2024/03/01 06:17:09;;;;;;;40.33;16.67;;;9.50;99.90;;;;;;5030622;28;20033;-88
2024/03/01 06:19:35;;;;;;;44.47;16.38;;;9.50;99.90;;;;;;5031069;28;20025;-88
2024/03/01 06:22:00;;;;;;;39.28;16.65;;;9.50;99.90;;;;;;5030978;28;20053;-89
2024/03/01 06:24:26;;;;;;;38.85;13.75;;;9.50;99.90;;;;;;5030422;28;20565;-88
2024/03/01 06:26:54;;;;;;;41.72;17.23;;;9.50;99.90;;;;;;5027147;28;20108;-88
2024/03/01 06:29:20;;;;;;;40.75;16.85;;;9.50;99.90;;;;;;5024034;28;20018;-89
2024/03/01 06:31:45;;;;;;;39.05;16.52;;;9.50;99.90;;;;;;5031990;28;20435;-89
2024/03/01 06:34:11;;;;;;;39.90;16.90;;;9.50;99.90;;;;;;5026857;28;20030;-89
2024/03/01 06:36:36;;;;;;;48.55;18.27;;;9.50;99.90;;;;;;5031748;28;20022;-88
2024/03/01 06:39:02;;;;;;;39.88;17.38;;;9.50;99.90;;;;;;5031417;28;20025;-89
2024/03/01 06:41:28;;;;;;;49.42;17.67;;;9.50;99.90;;;;;;5035720;28;20022;-88
2024/03/01 06:43:54;;;;;;;39.60;17.40;;;9.50;99.90;;;;;;5032500;28;20038;-88
2024/03/01 06:46:19;;;;;;;43.78;17.58;;;9.50;99.90;;;;;;5027241;28;20049;-89
2024/03/01 06:48:45;;;;;;;44.35;17.85;;;9.50;99.90;;;;;;5031247;28;20029;-88
2024/03/01 06:51:11;;;;;;;47.88;17.88;;;9.50;99.90;;;;;;5031418;28;20049;-88
2024/03/01 06:53:36;;;;;;;46.90;18.50;;;9.50;99.90;;;;;;5030837;28;20021;-88
2024/03/01 06:56:03;;;;;;;35.08;16.88;;;9.50;99.90;;;;;;5030017;28;20117;-88
2024/03/01 06:58:28;;;;;;;45.95;17.85;;;9.50;99.90;;;;;;5027123;28;20029;-89
2024/03/01 07:00:54;;;;;;;46.85;18.70;;;9.50;99.90;;;;;;5031144;28;20025;-88
2024/03/01 07:03:20;;;;;;;40.67;17.45;;;9.50;99.90;;;;;;5027181;28;20021;-89
2024/03/01 07:05:45;;;;;;;41.90;17.92;;;9.50;99.90;;;;;;5032334;28;20022;-87
2024/03/01 07:08:11;;;;;;;43.03;18.02;;;9.50;99.90;;;;;;5023476;28;20109;-88
2024/03/01 07:10:38;;;;;;;50.00;18.80;;;9.50;99.90;;;;;;5031355;28;20511;-88
2024/03/01 07:13:03;;;;;;;39.50;17.85;;;9.50;99.90;;;;;;5026419;28;20029;-88
2024/03/01 07:15:29;;;;;;;42.58;18.35;;;9.50;99.90;;;;;;5022422;28;20026;-89
2024/03/01 07:17:58;;;;;;;52.45;19.45;;;9.50;99.90;;;;;;5031920;28;20029;-88
2024/03/01 07:20:24;;;;;;;41.65;17.92;;;9.50;99.90;;;;;;5025146;28;20025;-88
2024/03/01 07:22:50;;;;;;;34.13;16.65;;;9.50;99.90;;;;;;5029130;28;20455;-89
2024/03/01 07:25:16;;;;;;;49.67;18.98;;;9.50;99.90;;;;;;5014597;28;20021;-88
2024/03/01 07:27:42;;;;;;;46.97;19.90;;;9.50;99.90;;;;;;5027459;28;20021;-88
2024/03/01 07:30:09;;;;;;;41.80;19.13;;;9.50;99.90;;;;;;5030962;28;20088;-88
2024/03/01 07:32:35;;;;;;;49.35;18.20;;;9.50;99.90;;;;;;5020267;28;20455;-88
2024/03/01 07:35:05;;;;;;;50.45;18.23;;;9.50;99.90;;;;;;5030828;28;20083;-89
2024/03/01 07:37:31;;;;;;;46.95;18.60;;;9.50;99.90;;;;;;5030822;28;20017;-88
2024/03/01 07:39:57;;;;;;;53.28;19.98;;;9.50;99.90;;;;;;5030556;28;20408;-87
2024/03/01 07:42:24;;;;;;;51.00;18.80;;;9.50;99.90;;;;;;5028746;28;20026;-89
2024/03/01 07:44:50;;;;;;;42.05;18.40;;;9.50;99.90;;;;;;5038134;28;20571;-89
2024/03/01 07:47:16;;;;;;;46.33;18.15;;;9.50;99.90;;;;;;5031651;28;20041;-88
2024/03/01 07:49:41;;;;;;;43.20;18.73;;;9.50;99.90;;;;;;5030617;28;20057;-89
2024/03/01 07:52:07;;;;;;;43.97;18.45;;;9.50;99.90;;;;;;5027553;28;20022;-88
2024/03/01 07:54:33;;;;;;;49.92;19.33;;;9.50;99.90;;;;;;5016943;28;20030;-89
2024/03/01 07:56:58;;;;;;;46.67;18.48;;;9.50;99.90;;;;;;5027893;28;20030;-89
2024/03/01 07:59:24;;;;;;;48.47;17.70;;;9.50;99.90;;;;;;5030329;28;20021;-89
2024/03/01 08:01:50;;;;;;;46.90;18.85;;;9.50;99.90;;;;;;5027380;28;20076;-88
2024/03/01 08:04:15;;;;;;;45.40;17.83;;;9.50;99.90;;;;;;5030310;28;20108;-89
2024/03/01 08:06:41;;;;;;;42.42;17.83;;;9.50;99.90;;;;;;5029433;28;20026;-89
2024/03/01 08:09:32;;;;;;;52.78;18.70;;;9.50;99.90;;;;;;5034027;28;20028;-88
2024/03/01 08:11:58;;;;;;;43.88;18.20;;;9.50;99.90;;;;;;5027358;28;20030;-88
2024/03/01 08:14:27;;;;;;;44.63;18.17;;;9.50;99.90;;;;;;5029358;28;20041;-88
2024/03/01 08:16:53;;;;;;;44.72;18.95;;;9.50;99.90;;;;;;5035706;28;20052;-89
2024/03/01 08:19:34;;;;;;;42.97;18.88;;;9.60;99.90;;;;;;5034265;28;20055;-89
2024/03/01 08:22:09;;;;;;;47.53;19.38;;;9.60;99.90;;;;;;5034158;28;20380;-87
2024/03/01 08:24:36;;;;;;;50.92;17.98;;;9.60;99.90;;;;;;5027843;28;20087;-88
2024/03/01 08:27:04;;;;;;;48.80;17.92;;;9.60;99.90;;;;;;5025751;28;20025;-89
2024/03/01 08:29:32;;;;;;;43.83;18.52;;;9.50;99.90;;;;;;5032085;28;20022;-89
2024/03/01 08:31:58;;;;;;;46.70;18.95;;;9.60;99.90;;;;;;5031645;28;20668;-88
2024/03/01 08:34:33;;;;;;;53.90;19.08;;;9.50;99.90;;;;;;5034928;28;20060;-88
2024/03/01 08:36:58;;;;;;;42.63;18.50;;;9.50;99.90;;;;;;5021999;28;20538;-89
2024/03/01 08:39:25;;;;;;;47.15;17.63;;;9.50;99.90;;;;;;5022751;28;20034;-89
2024/03/01 08:41:54;;;;;;;52.00;20.27;;;9.50;99.90;;;;;;5030727;28;20026;-88
2024/03/01 08:44:49;;;;;;;52.42;20.98;;;9.50;99.90;;;;;;5033512;28;20109;-89
2024/03/01 08:47:27;;;;;;;42.53;17.95;;;9.50;99.90;;;;;;5037634;28;20024;-89
2024/03/01 08:49:52;;;;;;;46.30;19.63;;;9.50;99.90;;;;;;5033702;28;20033;-88
2024/03/01 08:52:31;;;;;;;51.63;19.48;;;9.50;99.90;;;;;;5031222;28;20025;-88
2024/03/01 08:55:10;;;;;;;51.60;19.65;;;9.50;99.90;;;;;;5030464;28;20026;-88
2024/03/01 08:57:39;;;;;;;51.30;19.35;;;9.50;99.90;;;;;;5022917;28;20476;-89
2024/03/01 09:00:20;;;;;;;56.78;19.90;;;9.50;99.90;;;;;;5033277;28;20108;-89
2024/03/01 09:02:48;;;;;;;46.95;18.55;;;9.60;99.90;;;;;;5038333;28;20026;-88
2024/03/01 09:05:15;;;;;;;55.92;20.35;;;9.60;99.90;;;;;;5026411;28;20034;-88
2024/03/01 09:07:40;;;;;;;48.20;18.98;;;9.60;99.90;;;;;;5034588;28;20041;-89
2024/03/01 09:10:21;;;;;;;52.97;20.38;;;9.60;99.90;;;;;;5037722;28;20022;-91
2024/03/01 09:12:47;;;;;;;50.92;20.20;;;9.60;99.90;;;;;;5037555;28;20091;-88
2024/03/01 09:15:15;;;;;;;44.20;19.80;;;9.60;99.90;;;;;;5036376;28;20049;-90
2024/03/01 09:17:42;;;;;;;44.50;18.20;;;9.60;99.90;;;;;;5036618;28;20048;-90
2024/03/01 09:20:35;;;;;;;44.53;18.73;;;9.60;99.90;;;;;;5036612;28;20480;-90
2024/03/01 09:23:03;;;;;;;46.90;19.45;;;9.60;99.90;;;;;;5029286;28;20030;-90
2024/03/01 09:25:41;;;;;;;48.55;19.95;;;9.60;99.90;;;;;;5033705;28;20069;-90
2024/03/01 09:28:11;;;;;;;46.40;19.08;;;9.60;99.90;;;;;;5037097;28;20046;-91
2024/03/01 09:30:37;;;;;;;49.65;20.63;;;9.60;99.90;;;;;;5033849;28;20018;-91
2024/03/01 09:33:03;;;;;;;53.08;20.13;;;9.60;99.90;;;;;;5033467;28;20018;-89
2024/03/01 09:35:30;;;;;;;54.10;20.90;;;9.60;99.90;;;;;;5022334;28;20403;-91
2024/03/01 09:37:56;;;;;;;55.00;21.20;;;9.60;99.90;;;;;;5033938;28;20049;-90
2024/03/01 09:40:33;;;;;;;50.70;20.02;;;9.60;99.90;;;;;;5038276;28;20025;-91
2024/03/01 09:43:11;;;;;;;60.78;21.92;;;9.60;99.90;;;;;;5034960;28;20022;-90
2024/03/01 09:46:02;;;;;;;51.10;20.75;;;9.50;99.90;;;;;;5035884;28;20030;-91
2024/03/01 09:48:39;;;;;;;52.95;20.65;;;9.60;99.90;;;;;;5036465;28;20017;-90
2024/03/01 09:51:26;;;;;;;52.22;21.40;;;9.60;99.90;;;;;;5024260;28;20064;-91
2024/03/01 09:54:36;;;;;;;57.00;21.70;;;9.60;99.90;;;;;;5030691;28;20116;-91
2024/03/01 09:57:02;;;;;;;;;;;9.60;99.90;;;;;;5009705;28;20033;-90
2024/03/01 10:00:00;;;;;;;53.88;19.55;;;9.60;99.90;;;;;;5019392;28;19908;-90
2024/03/01 10:02:53;;;;;;;50.22;19.70;;;9.60;99.90;;;;;;5031341;28;20468;-90
2024/03/01 10:05:37;;;;;;;47.97;19.05;;;9.60;99.90;;;;;;5017356;28;20025;-91
2024/03/01 10:08:08;;;;;;;46.90;19.75;;;9.60;99.90;;;;;;5015570;28;20020;-90
2024/03/01 10:11:13;;;;;;;50.47;19.38;;;9.60;99.90;;;;;;5019045;28;20025;-91
2024/03/01 10:13:41;;;;;;;46.22;19.23;;;9.60;99.90;;;;;;4926222;29;20035;-88
2024/03/01 10:16:34;;;;;;;46.75;17.60;;;9.60;99.90;;;;;;5002456;28;20084;-90
2024/03/01 10:19:14;;;;;;;47.97;18.50;;;9.60;99.90;;;;;;4943025;28;20045;-91
2024/03/01 10:21:56;;;;;;;49.20;18.50;;;9.60;99.90;;;;;;4949302;29;20054;-90
2024/03/01 10:24:22;;;;;;;44.45;18.77;;;9.60;99.90;;;;;;4956785;29;20063;-89
2024/03/01 10:27:06;;;;;;;43.05;18.13;;;9.60;99.90;;;;;;4941204;28;20027;-89
2024/03/01 10:30:15;;;;;;;35.22;15.60;;;9.60;99.90;;;;;;4953575;28;20110;-90
2024/03/01 10:32:56;;;;;;;47.72;18.13;;;9.60;99.90;;;;;;4965415;28;20027;-90
2024/03/01 10:35:24;;;;;;;41.78;16.95;;;9.60;99.90;;;;;;4969356;28;20015;-90
2024/03/01 10:37:56;;;;;;;43.85;16.83;;;9.60;99.90;;;;;;4961284;28;20031;-89
2024/03/01 10:40:23;;;;;;;40.22;15.48;;;9.60;99.90;;;;;;4972629;28;20038;-91
2024/03/01 10:43:06;;;;;;;41.95;15.65;;;9.60;99.90;;;;;;4970402;28;20113;-89
2024/03/01 10:45:43;;;;;;;38.88;16.02;;;9.60;99.90;;;;;;4975303;28;20025;-90
2024/03/01 10:48:09;;;;;;;36.70;15.30;;;9.60;99.90;;;;;;4972748;28;20055;-90
2024/03/01 10:50:45;;;;;;;30.60;14.07;;;9.60;99.90;;;;;;4957710;28;20023;-90
2024/03/01 10:53:29;;;;;;;32.78;14.20;;;9.60;99.90;;;;;;4960344;28;20574;-90
2024/03/01 10:56:06;;;;;;;39.78;15.32;;;9.60;99.90;;;;;;5000644;28;20479;-90
2024/03/01 10:58:44;;;;;;;37.28;15.27;;;9.60;99.90;;;;;;5034107;28;20013;-90
2024/03/01 11:01:25;;;;;;;37.00;14.60;;;9.60;99.90;;;;;;5037428;28;20014;-91
2024/03/01 11:04:00;;;;;;;32.53;14.40;;;9.60;99.90;;;;;;5036025;28;20021;-91
2024/03/01 11:06:35;;;;;;;31.88;13.90;;;9.60;99.90;;;;;;5035490;28;20067;-91
2024/03/01 11:09:14;;;;;;;34.60;13.25;;;9.60;99.90;;;;;;5036865;28;20502;-91
2024/03/01 11:11:52;;;;;;;33.60;13.68;;;9.70;99.90;;;;;;5030505;28;20024;-91
2024/03/01 11:14:21;;;;;;;35.78;13.38;;;9.60;99.90;;;;;;5036119;28;20020;-88
2024/03/01 11:16:51;;;;;;;35.20;13.75;;;9.60;99.90;;;;;;5035494;28;20084;-90
2024/03/01 11:19:22;;;;;;;30.37;12.63;;;9.70;99.90;;;;;;5031513;28;20078;-89
2024/03/01 11:21:57;;;;;;;35.00;13.43;;;9.70;99.90;;;;;;5034752;28;20029;-91
2024/03/01 11:24:28;;;;;;;33.15;13.25;;;9.70;99.90;;;;;;5031460;28;20187;-88
2024/03/01 11:26:59;;;;;;;33.40;13.35;;;9.70;99.90;;;;;;5029287;28;20367;-90
2024/03/01 11:30:04;;;;;;;32.15;13.52;;;9.70;99.90;;;;;;5035815;28;20128;-90
2024/03/01 11:32:33;;;;;;;29.13;12.50;;;9.70;99.90;;;;;;5027912;28;20029;-91
2024/03/01 11:35:09;;;;;;;27.55;12.02;;;9.70;99.90;;;;;;5014605;28;20052;-90
2024/03/01 11:38:05;;;;;;;23.65;11.80;;;9.70;99.90;;;;;;5009015;28;20419;-91
2024/03/01 11:40:52;;;;;;;27.13;12.10;;;9.70;99.90;;;;;;5029583;28;20021;-89
2024/03/01 11:43:29;;;;;;;27.20;11.85;;;9.70;99.90;;;;;;5033434;28;20042;-89
2024/03/01 11:46:03;;;;;;;26.60;11.07;;;9.70;99.90;;;;;;5017677;28;20491;-90
2024/03/01 11:48:32;;;;;;;25.33;10.70;;;9.70;99.90;;;;;;5010272;28;20499;-91
2024/03/01 11:51:03;;;;;;;22.77;10.73;;;9.70;99.90;;;;;;5024486;28;20030;-91
2024/03/01 11:53:53;;;;;;;28.15;11.20;;;9.70;99.90;;;;;;5017504;28;20077;-90
2024/03/01 11:56:27;;;;;;;29.05;11.38;;;9.70;99.90;;;;;;5008108;28;20026;-90
2024/03/01 11:59:02;;;;;;;23.15;10.32;;;9.70;99.90;;;;;;4994601;28;20069;-88
2024/03/01 12:01:36;;;;;;;23.80;11.25;;;9.80;99.90;;;;;;5022018;28;20037;-90
2024/03/01 12:04:16;;;;;;;25.17;10.75;;;9.70;99.90;;;;;;5014098;28;20072;-91
2024/03/01 12:06:56;;;;;;;24.35;10.70;;;9.80;99.90;;;;;;5012161;28;20021;-89
2024/03/01 12:10:05;;;;;;;25.52;10.75;;;9.80;99.90;;;;;;5026665;28;20025;-89
2024/03/01 12:12:47;;;;;;;22.58;11.13;;;9.70;99.90;;;;;;5030647;28;20097;-90
2024/03/01 12:15:22;;;;;;;27.02;9.95;;;9.70;99.90;;;;;;5027158;28;20041;-90
2024/03/01 12:18:08;;;;;;;22.15;10.52;;;9.70;99.90;;;;;;5034311;28;20017;-90
2024/03/01 12:20:46;;;;;;;24.58;10.05;;;9.80;99.90;;;;;;5033401;28;20021;-91
2024/03/01 12:23:35;;;;;;;22.67;9.88;;;9.80;99.90;;;;;;5025363;28;20072;-89
2024/03/01 12:26:02;;;;;;;21.25;9.48;;;9.80;99.90;;;;;;5038084;28;20093;-89
2024/03/01 12:28:58;;;;;;;29.42;10.43;;;9.90;99.90;;;;;;5029313;28;20028;-90
2024/03/01 12:31:47;;;;;;;24.05;10.75;;;9.90;99.90;;;;;;5019745;28;20014;-89
2024/03/01 12:34:52;;;;;;;25.67;9.85;;;9.90;99.90;;;;;;5026663;28;20017;-89
2024/03/01 12:37:32;;;;;;;24.13;10.25;;;9.90;99.90;;;;;;5024870;28;20069;-90
2024/03/01 12:40:16;;;;;;;24.15;10.45;;;9.90;99.90;;;;;;5041451;28;20075;-89
2024/03/01 12:43:19;;;;;;;23.10;10.73;;;9.90;99.90;;;;;;5030094;28;20144;-90
2024/03/01 12:45:48;;;;;;;22.52;11.02;;;9.90;99.90;;;;;;5027179;28;20030;-89
2024/03/01 12:48:34;;;;;;;21.10;10.15;;;9.90;99.90;;;;;;5032335;28;20108;-91
2024/03/01 12:51:16;;;;;;;25.25;9.98;;;9.90;99.90;;;;;;5024746;28;20014;-90
2024/03/01 12:53:41;;;;;;;21.10;9.85;;;9.90;99.90;;;;;;5036972;28;20076;-89